Quad City International Airport
KMLI : now visible

Airfield :











YOU CAN JOIN US ON...

 
LOGIN :

Register | Disclaimer

   EN    FR    IT 

 









Legend :    VFR   Marginal VFR   IFR   Intensive IFR   Very Intensive IFR
Visi :
Ceiling :
>= 8 km
>= 3000ft
5 to 8 km
1000 to 3000 ft
1500m to 5 km
500 to 1000 ft
800 to 1500m
200 to 500 ft
< 800m
< 200 ft
Symbols :   Thunderstorms  Fog  Heavy snow  Heavy precipitations  Wind > 20 kt







- Airport Elevation : 590 ft
- IATA code : MLI


KMLI - Quad City International

CURRENT METAR :
  • 212052Z 18008KT 10SM FEW043 OVC050 26/22 A2996 RMK AO2 RAB1958E08 SLP142 P0000 60001 T02560222 56016

EXPIRED METARs :
  • 211952Z 19006KT 10SM SCT032 BKN043 OVC049 26/23 A2998 RMK AO2 LTG DSNT SE SLP146 T02610228
  • 211852Z 17004KT 8SM SCT024 SCT037 OVC046 25/23 A2999 RMK AO2 RAE03 SLP149 P0001 T02500228

TAF KMLI
Valid from the 21 at 20:00 until the 22 at 18:00 UTC


212021Z 2120/2218 18010KT 6SM BR VCSH FEW018 OVC035
TEMPO 2121/2201 1SM +TSRA BR OVC015CB
FM220100 20013G21KT 3SM +SHRA OVC015
FM220300 19012KT 2SM +RA OVC015
No reported NOTAMs for that airfield.



MET'MAP, your aeronautical weather chart ! - Copyright ORBIFLY December 2007 - Disclaimer

ORBIFLY MET'MAP TEAM :

Programming & Development : Alexandra Zaïnal
Concept & Development : Baudouin d'Aumeries
Co-Development & Prog : Marc-Olivier Méhu
Technical & hardware support : Manuel Goepfert

Contact : metmap@orbifly.com




SOURCES & CREDITS :

   NOAA       Earth
Advisory